Marietta, Ohio
Current Conditions -  °F | °C
As of 3:53 AM on Monday 20 Oct 2014 (Local Time) from KPKB Reporting Station
Clear Clear  
Wind Chill: 36°   Ceiling: Unl
Heat Index: 40°   Visibility: 10mi
Dew Point: 37°   Wind: 6mph
Humidity: 89%   Direction: 140°SE
Pressure: 30.08"   Gusts: NA
Location:  39.42°N, 81.46°W
Report Text: KPKB 200753Z AUTO 14005KT 10SM CLR 04/03 A3008 RMK AO2 SLP186 T00440028
Loading
Personal Weather Stations






























Interactive Weather Map
Tropical Storm Tracking
New forecast layout! Learn more

10-Day Weather Forecast

Advertisements
Track Severe Weather on mobile